createdAt,value
2023-01-26T00:00:10.726Z,98681.47
2023-01-26T00:02:16.918Z,98678.91
2023-01-26T00:04:19.804Z,98678.91
2023-01-26T00:06:23.153Z,98676.47
2023-01-26T00:08:26.190Z,98672.16
2023-01-26T00:10:29.165Z,98670.47
2023-01-26T00:12:32.068Z,98661.03
2023-01-26T00:14:49.904Z,98661.00
2023-01-26T00:16:54.413Z,98660.94
2023-01-26T00:18:59.886Z,98663.53
2023-01-26T00:21:04.009Z,98662.63
2023-01-26T00:23:07.178Z,98657.44
2023-01-26T00:25:10.715Z,98647.47
2023-01-26T00:27:13.655Z,98639.81
2023-01-26T00:29:16.610Z,98643.28
2023-01-26T00:31:21.228Z,98634.66
2023-01-26T00:33:24.188Z,98642.41
2023-01-26T00:35:28.456Z,98638.13
2023-01-26T00:37:31.787Z,98635.66
2023-01-26T00:39:34.767Z,98627.91
2023-01-26T00:42:00.450Z,98618.47
2023-01-26T00:44:03.503Z,98621.00
2023-01-26T00:46:06.435Z,98614.91
2023-01-26T00:48:11.646Z,98609.72
2023-01-26T00:50:14.871Z,98619.97
2023-01-26T00:52:19.107Z,98624.25
2023-01-26T00:54:22.035Z,98619.09
2023-01-26T00:56:27.883Z,98618.41
2023-01-26T00:58:30.846Z,98622.66
2023-01-26T01:00:35.253Z,98616.81
2023-01-26T01:02:38.244Z,98609.09
2023-01-26T01:04:41.215Z,98606.50
2023-01-26T01:06:44.447Z,98612.44
2023-01-26T01:08:48.949Z,98604.66
2023-01-26T01:10:51.868Z,98609.88
2023-01-26T01:12:54.813Z,98613.31
2023-01-26T01:14:59.556Z,98614.13
2023-01-26T01:17:02.527Z,98613.94
2023-01-26T01:19:05.585Z,98614.03
2023-01-26T01:21:08.979Z,98614.13
2023-01-26T01:23:11.879Z,98615.13
2023-01-26T01:25:16.254Z,98610.88
2023-01-26T01:27:19.254Z,98616.03
2023-01-26T01:29:22.194Z,98609.91
2023-01-26T01:31:26.209Z,98606.47
2023-01-26T01:33:29.232Z,98603.94
2023-01-26T01:35:35.735Z,98600.63
2023-01-26T01:37:38.669Z,98591.19
2023-01-26T01:39:41.607Z,98598.91
2023-01-26T01:41:46.025Z,98600.66
2023-01-26T01:43:48.978Z,98601.50
2023-01-26T01:45:52.487Z,98607.50
2023-01-26T01:47:57.399Z,98589.44
2023-01-26T01:50:04.211Z,98587.78
2023-01-26T01:52:10.208Z,98585.09
2023-01-26T01:54:16.748Z,98593.63
2023-01-26T01:56:22.037Z,98597.03
2023-01-26T01:58:26.676Z,98592.72
2023-01-26T02:00:32.831Z,98590.25
2023-01-26T02:02:36.251Z,98588.47
2023-01-26T02:04:39.537Z,98591.13
2023-01-26T02:06:50.651Z,98592.03
2023-01-26T02:08:55.738Z,98586.88
2023-01-26T02:11:01.467Z,98588.50
2023-01-26T02:13:06.392Z,98583.41
2023-01-26T02:15:12.064Z,98580.81
2023-01-26T02:17:14.969Z,98580.03
2023-01-26T02:19:23.512Z,98580.97
2023-01-26T02:21:26.633Z,98586.91
2023-01-26T02:23:41.083Z,98580.09
2023-01-26T02:25:49.110Z,98575.00
2023-01-26T02:27:53.749Z,98573.19
2023-01-26T02:29:57.481Z,98570.66
2023-01-26T02:32:00.476Z,98569.84
2023-01-26T02:34:03.614Z,98561.22
2023-01-26T02:36:07.805Z,98552.66
2023-01-26T02:38:10.874Z,98552.72
2023-01-26T02:40:20.035Z,98552.81
2023-01-26T02:42:44.408Z,98547.72
2023-01-26T02:44:47.924Z,98549.56
2023-01-26T02:46:50.936Z,98547.03
2023-01-26T02:49:11.920Z,98548.69
2023-01-26T02:51:15.028Z,98542.66
2023-01-26T02:53:18.916Z,98537.47
2023-01-26T02:55:25.183Z,98535.75
2023-01-26T02:57:28.640Z,98534.84
2023-01-26T02:59:32.233Z,98528.78
2023-01-26T03:01:36.499Z,98530.59
2023-01-26T03:03:45.182Z,98529.78
2023-01-26T03:05:50.296Z,98525.44
2023-01-26T03:07:53.904Z,98525.44
2023-01-26T03:09:59.832Z,98538.31
2023-01-26T03:12:02.792Z,98521.13
2023-01-26T03:14:05.794Z,98520.28
2023-01-26T03:16:10.353Z,98518.63
2023-01-26T03:18:34.213Z,98511.00
2023-01-26T03:20:53.318Z,98510.19
2023-01-26T03:23:14.133Z,98511.88
2023-01-26T03:25:35.401Z,98503.44
2023-01-26T03:27:41.704Z,98508.63
2023-01-26T03:29:44.997Z,98505.22
2023-01-26T03:31:48.201Z,98505.28
2023-01-26T03:33:52.591Z,98509.56
2023-01-26T03:35:55.876Z,98507.91
2023-01-26T03:38:00.104Z,98504.50
2023-01-26T03:40:34.258Z,98512.25
2023-01-26T03:42:55.569Z,98502.84
2023-01-26T03:45:15.962Z,98512.25
2023-01-26T03:47:37.255Z,98508.00
2023-01-26T03:49:59.189Z,98508.06
2023-01-26T03:52:20.060Z,98504.63
2023-01-26T03:54:41.685Z,98517.44
2023-01-26T03:56:45.243Z,98522.59
2023-01-26T03:58:53.460Z,98522.59
2023-01-26T04:00:58.737Z,98517.28
2023-01-26T04:03:19.074Z,98507.00
2023-01-26T04:05:41.273Z,98516.38
2023-01-26T04:08:01.633Z,98518.94
2023-01-26T04:10:05.023Z,98517.28
2023-01-26T04:12:10.213Z,98512.09
2023-01-26T04:14:49.307Z,98510.38
2023-01-26T04:17:13.307Z,98516.38
2023-01-26T04:19:33.868Z,98513.00
2023-01-26T04:21:39.111Z,98518.16
2023-01-26T04:23:56.398Z,98515.63
2023-01-26T04:26:00.041Z,98513.94
2023-01-26T04:28:03.322Z,98517.41
2023-01-26T04:30:07.975Z,98515.78
2023-01-26T04:32:11.921Z,98511.50
2023-01-26T04:34:16.502Z,98506.41
2023-01-26T04:36:19.766Z,98502.03
2023-01-26T04:38:26.785Z,98494.41
2023-01-26T04:40:30.533Z,98501.34
2023-01-26T04:42:33.955Z,98500.47
2023-01-26T04:44:38.234Z,98492.78
2023-01-26T04:46:41.603Z,98489.31
2023-01-26T04:48:46.785Z,98497.13
2023-01-26T04:50:54.847Z,98491.84
2023-01-26T04:52:59.038Z,98496.94
2023-01-26T04:55:03.437Z,98498.69
2023-01-26T04:57:09.009Z,98492.69
2023-01-26T04:59:12.997Z,98489.22
2023-01-26T05:01:17.565Z,98496.25
2023-01-26T05:03:20.718Z,98487.78
2023-01-26T05:05:23.870Z,98489.50
2023-01-26T05:07:27.028Z,98493.00
2023-01-26T05:09:30.121Z,98489.56
2023-01-26T05:11:49.682Z,98491.34
2023-01-26T05:14:12.944Z,98493.16
2023-01-26T05:16:31.766Z,98489.75
2023-01-26T05:18:35.051Z,98486.31
2023-01-26T05:20:52.806Z,98483.72
2023-01-26T05:23:01.582Z,98487.22
2023-01-26T05:25:36.656Z,98483.03
2023-01-26T05:27:45.393Z,98484.88
2023-01-26T05:29:51.011Z,98493.50
2023-01-26T05:31:54.681Z,98491.78
2023-01-26T05:33:57.900Z,98496.13
2023-01-26T05:36:05.045Z,98495.25
2023-01-26T05:38:08.519Z,98489.28
2023-01-26T05:40:13.995Z,98496.94
2023-01-26T05:42:17.391Z,98488.50
2023-01-26T05:44:38.350Z,98498.84
2023-01-26T05:46:49.959Z,98493.69
2023-01-26T05:48:52.908Z,98503.94
2023-01-26T05:50:57.437Z,98497.03
2023-01-26T05:53:02.967Z,98503.06
2023-01-26T05:55:08.515Z,98504.78
2023-01-26T05:57:11.903Z,98498.78
2023-01-26T05:59:20.055Z,98508.22
2023-01-26T06:01:24.567Z,98497.91
2023-01-26T06:03:33.596Z,98503.78
2023-01-26T06:05:38.825Z,98502.09
2023-01-26T06:07:49.815Z,98499.47
2023-01-26T06:10:01.408Z,98498.66
2023-01-26T06:12:43.114Z,98495.25
2023-01-26T06:15:13.377Z,98502.88
2023-01-26T06:17:22.334Z,98496.03
2023-01-26T06:19:31.529Z,98494.28
2023-01-26T06:21:36.325Z,98497.72
2023-01-26T06:23:39.463Z,98493.41
2023-01-26T06:25:42.620Z,98495.97
2023-01-26T06:27:45.554Z,98496.75
2023-01-26T06:30:00.040Z,98503.66
2023-01-26T06:32:03.547Z,98496.66
2023-01-26T06:34:08.853Z,98494.09
2023-01-26T06:36:16.116Z,98501.84
2023-01-26T06:38:23.235Z,98499.28
2023-01-26T06:40:26.952Z,98506.13
2023-01-26T06:42:30.275Z,98503.56
2023-01-26T06:44:33.298Z,98503.56
2023-01-26T06:46:36.390Z,98501.84
2023-01-26T06:48:39.899Z,98500.97
2023-01-26T06:50:45.777Z,98504.34
2023-01-26T06:52:49.508Z,98499.19
2023-01-26T06:55:18.579Z,98505.25
2023-01-26T06:57:29.935Z,98494.13
2023-01-26T06:59:46.394Z,98500.97
2023-01-26T07:02:15.483Z,98502.78
2023-01-26T07:04:18.620Z,98495.34
2023-01-26T07:06:23.164Z,98496.31
2023-01-26T07:08:26.357Z,98495.38
2023-01-26T07:10:31.533Z,98494.53
2023-01-26T07:12:41.853Z,98498.00
2023-01-26T07:14:45.111Z,98497.16
2023-01-26T07:16:48.186Z,98498.00
2023-01-26T07:18:51.216Z,98506.53
2023-01-26T07:20:54.120Z,98510.69
2023-01-26T07:23:00.532Z,98521.81
2023-01-26T07:25:03.690Z,98517.50
2023-01-26T07:27:07.443Z,98517.75
2023-01-26T07:29:10.634Z,98519.50
2023-01-26T07:31:13.993Z,98516.81
2023-01-26T07:33:17.069Z,98514.97
2023-01-26T07:35:20.059Z,98518.41
2023-01-26T07:37:22.997Z,98509.94
2023-01-26T07:39:27.849Z,98514.25
2023-01-26T07:41:30.985Z,98514.19
2023-01-26T07:43:35.167Z,98516.00
2023-01-26T07:45:38.125Z,98521.19
2023-01-26T07:47:41.080Z,98510.78
2023-01-26T07:49:44.016Z,98513.31
2023-01-26T07:51:47.004Z,98512.41
2023-01-26T07:53:50.082Z,98515.84
2023-01-26T07:55:54.456Z,98517.47
2023-01-26T07:57:57.780Z,98513.13
2023-01-26T08:00:01.037Z,98513.06
2023-01-26T08:02:04.083Z,98506.97
2023-01-26T08:04:07.425Z,98515.50
2023-01-26T08:06:14.101Z,98515.56
2023-01-26T08:08:19.395Z,98515.41
2023-01-26T08:10:22.426Z,98519.69
2023-01-26T08:12:26.767Z,98519.69
2023-01-26T08:14:45.071Z,98513.66
2023-01-26T08:16:49.158Z,98516.13
2023-01-26T08:18:52.360Z,98509.28
2023-01-26T08:20:55.853Z,98512.66
2023-01-26T08:23:00.477Z,98503.16
2023-01-26T08:25:03.680Z,98504.88
2023-01-26T08:27:06.695Z,98506.56
2023-01-26T08:29:11.097Z,98505.72
2023-01-26T08:31:18.611Z,98498.78
2023-01-26T08:33:21.675Z,98493.59
2023-01-26T08:35:24.664Z,98502.13
2023-01-26T08:37:27.667Z,98501.31
2023-01-26T08:39:30.607Z,98502.13
2023-01-26T08:41:33.984Z,98500.38
2023-01-26T08:43:37.209Z,98503.72
2023-01-26T08:45:41.693Z,98501.94
2023-01-26T08:47:45.403Z,98495.84
2023-01-26T08:49:48.440Z,98500.13
2023-01-26T08:51:51.454Z,98497.50
2023-01-26T08:53:54.796Z,98494.81
2023-01-26T08:55:57.745Z,98486.22
2023-01-26T08:58:00.880Z,98498.28
2023-01-26T09:00:04.993Z,98494.81
2023-01-26T09:02:10.164Z,98486.16
2023-01-26T09:04:13.256Z,98487.88
2023-01-26T09:06:16.371Z,98486.97
2023-01-26T09:08:19.302Z,98493.91
2023-01-26T09:10:22.285Z,98481.97
2023-01-26T09:12:25.303Z,98490.50
2023-01-26T09:14:28.707Z,98487.03
2023-01-26T09:16:31.889Z,98489.50
2023-01-26T09:18:36.551Z,98492.91
2023-01-26T09:20:40.139Z,98494.59
2023-01-26T09:22:43.602Z,98491.06
2023-01-26T09:24:46.591Z,98496.16
2023-01-26T09:26:49.615Z,98493.63
2023-01-26T09:28:53.130Z,98496.16
2023-01-26T09:30:56.495Z,98503.03
2023-01-26T09:33:00.278Z,98501.28
2023-01-26T09:35:04.985Z,98498.59
2023-01-26T09:37:08.407Z,98502.00
2023-01-26T09:39:11.470Z,98501.16
2023-01-26T09:41:33.550Z,98505.38
2023-01-26T09:43:41.535Z,98504.56
2023-01-26T09:45:48.188Z,98506.31
2023-01-26T09:47:59.857Z,98500.38
2023-01-26T09:50:09.559Z,98493.44
2023-01-26T09:52:19.552Z,98500.28
2023-01-26T09:54:27.813Z,98495.22
2023-01-26T09:56:32.632Z,98494.25
2023-01-26T09:58:39.315Z,98499.31
2023-01-26T10:00:47.436Z,98496.78
2023-01-26T10:03:02.184Z,98496.84
2023-01-26T10:05:15.852Z,98493.38
2023-01-26T10:07:18.939Z,98491.13
2023-01-26T10:09:24.292Z,98488.59
2023-01-26T10:11:32.041Z,98494.50
2023-01-26T10:13:35.635Z,98499.41
2023-01-26T10:15:40.621Z,98501.13
2023-01-26T10:17:45.041Z,98488.06
2023-01-26T10:19:51.720Z,98494.06
2023-01-26T10:21:56.766Z,98494.88
2023-01-26T10:24:02.903Z,98492.19
2023-01-26T10:26:13.479Z,98488.91
2023-01-26T10:28:17.619Z,98485.34
2023-01-26T10:30:22.283Z,98490.50
2023-01-26T10:32:25.499Z,98486.16
2023-01-26T10:34:29.030Z,98488.78
2023-01-26T10:36:33.227Z,98489.59
2023-01-26T10:38:45.051Z,98487.84
2023-01-26T10:40:48.061Z,98483.47
2023-01-26T10:42:58.925Z,98483.31
2023-01-26T10:45:03.582Z,98491.88
2023-01-26T10:47:17.921Z,98502.03
2023-01-26T10:49:22.052Z,98501.03
2023-01-26T10:51:28.033Z,98487.38
2023-01-26T10:53:31.584Z,98482.28
2023-01-26T10:55:37.307Z,98489.19
2023-01-26T10:57:42.325Z,98489.22
2023-01-26T10:59:52.705Z,98490.06
2023-01-26T11:01:57.469Z,98481.75
2023-01-26T11:04:04.943Z,98479.13
2023-01-26T11:06:09.176Z,98479.97
2023-01-26T11:08:33.713Z,98472.44
2023-01-26T11:10:42.960Z,98469.97
2023-01-26T11:12:46.047Z,98464.88
2023-01-26T11:15:01.472Z,98470.41
2023-01-26T11:17:15.715Z,98460.09
2023-01-26T11:19:28.331Z,98460.09
2023-01-26T11:21:35.346Z,98466.94
2023-01-26T11:23:47.548Z,98466.97
2023-01-26T11:26:15.446Z,98466.22
2023-01-26T11:28:30.995Z,98459.41
2023-01-26T11:30:40.547Z,98462.03
2023-01-26T11:32:47.989Z,98461.22
2023-01-26T11:34:58.877Z,98458.38
2023-01-26T11:37:15.721Z,98464.47
2023-01-26T11:39:24.525Z,98460.25
2023-01-26T11:41:39.369Z,98449.97
2023-01-26T11:44:13.336Z,98449.78
2023-01-26T11:46:41.067Z,98446.41
2023-01-26T11:48:50.694Z,98440.31
2023-01-26T11:50:57.311Z,98437.00
2023-01-26T11:53:29.025Z,98434.56
2023-01-26T11:55:39.812Z,98432.06
2023-01-26T11:57:55.019Z,98434.47
2023-01-26T12:00:01.971Z,98433.63
2023-01-26T12:02:06.919Z,98426.78
2023-01-26T12:04:18.476Z,98420.91
2023-01-26T12:06:27.175Z,98408.84
2023-01-26T12:08:38.349Z,98413.91
2023-01-26T12:10:47.891Z,98422.44
2023-01-26T12:12:56.267Z,98411.00
2023-01-26T12:15:05.953Z,98403.59
2023-01-26T12:17:26.624Z,98406.69
2023-01-26T12:19:40.155Z,98401.72
2023-01-26T12:21:45.752Z,98401.81
2023-01-26T12:23:52.878Z,98392.69
2023-01-26T12:25:58.202Z,98397.16
2023-01-26T12:28:12.426Z,98400.47
2023-01-26T12:30:26.100Z,98393.66
2023-01-26T12:32:29.264Z,98386.88
2023-01-26T12:34:34.251Z,98389.53
2023-01-26T12:36:44.163Z,98383.94
2023-01-26T12:39:01.475Z,98376.56
2023-01-26T12:41:10.040Z,98369.88
2023-01-26T12:43:24.802Z,98372.25
2023-01-26T12:45:31.202Z,98365.13
2023-01-26T12:47:37.397Z,98372.91
2023-01-26T12:49:44.806Z,98373.59
2023-01-26T12:51:51.866Z,98369.16
2023-01-26T12:53:58.725Z,98369.00
2023-01-26T12:56:10.099Z,98373.94
2023-01-26T12:58:15.765Z,98369.50
2023-01-26T13:00:23.669Z,98367.75
2023-01-26T13:02:29.459Z,98366.72
2023-01-26T13:04:32.586Z,98359.75
2023-01-26T13:06:35.834Z,98360.59
2023-01-26T13:09:04.506Z,98367.38
2023-01-26T13:11:08.972Z,98364.81
2023-01-26T13:13:36.914Z,98363.94
2023-01-26T13:15:41.368Z,98361.28
2023-01-26T13:17:56.712Z,98363.94
2023-01-26T13:20:00.224Z,98352.75
2023-01-26T13:22:03.505Z,98353.63
2023-01-26T13:24:47.066Z,98354.28
2023-01-26T13:26:51.718Z,98358.44
2023-01-26T13:29:41.616Z,98355.88
2023-01-26T13:31:46.014Z,98363.59
2023-01-26T13:33:50.273Z,98349.84
2023-01-26T13:35:54.928Z,98353.41
2023-01-26T13:38:03.519Z,98349.84
2023-01-26T13:40:14.950Z,98347.34
2023-01-26T13:42:21.812Z,98351.44
2023-01-26T13:44:30.896Z,98358.28
2023-01-26T13:46:37.752Z,98362.69
2023-01-26T13:48:45.315Z,98363.81
2023-01-26T13:50:51.466Z,98358.66
2023-01-26T13:52:54.524Z,98354.28
2023-01-26T13:54:57.889Z,98359.34
2023-01-26T13:57:02.498Z,98358.41
2023-01-26T13:59:11.556Z,98357.53
2023-01-26T14:01:17.051Z,98365.03
2023-01-26T14:03:22.821Z,98359.13
2023-01-26T14:05:27.340Z,98364.94
2023-01-26T14:07:33.779Z,98369.22
2023-01-26T14:09:45.727Z,98365.16
2023-01-26T14:11:59.385Z,98369.63
2023-01-26T14:14:03.004Z,98362.28
2023-01-26T14:16:07.959Z,98369.09
2023-01-26T14:18:21.741Z,98366.72
2023-01-26T14:20:30.011Z,98360.09
2023-01-26T14:22:33.003Z,98362.59
2023-01-26T14:24:39.705Z,98361.66
2023-01-26T14:26:43.195Z,98358.13
2023-01-26T14:28:46.862Z,98369.28
2023-01-26T14:30:52.896Z,98365.03
2023-01-26T14:32:59.208Z,98372.84
2023-01-26T14:35:02.412Z,98365.06
2023-01-26T14:37:08.302Z,98364.09
2023-01-26T14:39:18.153Z,98368.28
2023-01-26T14:41:23.420Z,98367.59
2023-01-26T14:43:29.758Z,98370.22
2023-01-26T14:45:41.581Z,98373.75
2023-01-26T14:48:04.425Z,98387.44
2023-01-26T14:50:11.696Z,98379.66
2023-01-26T14:52:25.536Z,98389.03
2023-01-26T15:02:17.920Z,98385.16
2023-01-26T15:04:24.886Z,98386.00
2023-01-26T15:06:29.533Z,98391.16
2023-01-26T15:08:37.576Z,98394.78
2023-01-26T15:10:42.846Z,98387.19
2023-01-26T15:12:44.857Z,98393.22
2023-01-26T15:14:52.627Z,98390.69
2023-01-26T15:20:44.534Z,98398.47
2023-01-26T15:22:49.990Z,98397.63
2023-01-26T15:25:05.940Z,98400.97
2023-01-26T15:27:08.997Z,98408.75
2023-01-26T15:29:19.791Z,98403.47
2023-01-26T15:31:28.389Z,98400.88
2023-01-26T15:33:45.808Z,98401.81
2023-01-26T15:35:58.433Z,98400.00
2023-01-26T15:38:02.880Z,98398.16
2023-01-26T15:40:08.985Z,98398.78
2023-01-26T15:42:14.283Z,98406.44
2023-01-26T15:44:18.689Z,98404.72
2023-01-26T15:46:21.906Z,98396.03
2023-01-26T15:48:26.712Z,98402.84
2023-01-26T15:50:29.852Z,98393.38
2023-01-26T15:52:33.334Z,98397.69
2023-01-26T15:54:36.343Z,98394.25
2023-01-26T15:56:40.724Z,98397.69
2023-01-26T15:58:44.093Z,98399.50
2023-01-26T16:00:47.449Z,98405.41
2023-01-26T16:02:50.668Z,98398.41
2023-01-26T16:04:53.760Z,98409.53
2023-01-26T16:06:56.852Z,98410.34
2023-01-26T16:09:00.224Z,98413.72
2023-01-26T16:11:03.176Z,98406.84
2023-01-26T16:13:10.178Z,98412.88
2023-01-26T16:15:35.281Z,98410.25
2023-01-26T16:17:38.300Z,98417.00
2023-01-26T16:19:41.341Z,98416.34
2023-01-26T16:21:45.206Z,98421.50
2023-01-26T16:23:48.595Z,98409.53
2023-01-26T16:25:52.254Z,98404.38
2023-01-26T16:27:55.551Z,98408.66
2023-01-26T16:29:59.967Z,98406.13
2023-01-26T16:32:03.191Z,98403.56
2023-01-26T16:34:06.203Z,98411.13
2023-01-26T16:36:11.482Z,98406.84
2023-01-26T16:38:14.526Z,98414.66
2023-01-26T16:40:18.698Z,98403.44
2023-01-26T16:42:22.318Z,98409.59
2023-01-26T16:44:25.457Z,98413.97
2023-01-26T16:46:31.605Z,98407.06
2023-01-26T16:48:34.885Z,98410.41
2023-01-26T16:50:38.015Z,98401.03
2023-01-26T16:52:42.044Z,98415.56
2023-01-26T16:54:45.645Z,98416.44
2023-01-26T16:56:48.639Z,98408.88
2023-01-26T16:58:51.998Z,98405.63
2023-01-26T17:00:55.567Z,98403.88
2023-01-26T17:02:59.998Z,98403.00
2023-01-26T17:05:03.042Z,98408.09
2023-01-26T17:07:06.188Z,98404.66
2023-01-26T17:09:10.480Z,98396.91
2023-01-26T17:11:17.847Z,98400.47
2023-01-26T17:13:20.881Z,98399.50
2023-01-26T17:15:25.234Z,98408.97
2023-01-26T17:17:28.233Z,98406.41
2023-01-26T17:19:32.593Z,98405.50
2023-01-26T17:21:35.749Z,98411.50
2023-01-26T17:23:41.590Z,98415.72
2023-01-26T17:25:44.666Z,98412.28
2023-01-26T17:27:49.768Z,98409.69
2023-01-26T17:29:52.829Z,98408.81
2023-01-26T17:31:55.939Z,98404.50
2023-01-26T17:33:58.975Z,98401.97
2023-01-26T17:36:04.375Z,98409.69
2023-01-26T17:38:07.314Z,98404.59
2023-01-26T17:40:11.675Z,98407.19
2023-01-26T17:42:15.135Z,98405.50
2023-01-26T17:44:18.146Z,98406.44
2023-01-26T17:46:22.234Z,98407.31
2023-01-26T17:48:25.194Z,98408.91
2023-01-26T17:50:28.260Z,98410.66
2023-01-26T17:52:35.277Z,98409.03
2023-01-26T17:54:38.331Z,98410.03
2023-01-26T17:56:41.324Z,98415.16
2023-01-26T17:58:48.629Z,98418.66
2023-01-26T18:00:51.777Z,98415.31
2023-01-26T18:02:55.127Z,98407.56
2023-01-26T18:04:58.173Z,98417.78
2023-01-26T18:07:02.695Z,98421.22
2023-01-26T18:09:07.112Z,98415.25
2023-01-26T18:11:12.337Z,98410.09
2023-01-26T18:13:16.081Z,98411.81
2023-01-26T18:15:19.136Z,98411.81
2023-01-26T18:17:22.300Z,98415.19
2023-01-26T18:19:25.460Z,98419.47
2023-01-26T18:21:30.115Z,98416.97
2023-01-26T18:23:33.136Z,98416.03
2023-01-26T18:25:37.603Z,98416.06
2023-01-26T18:27:40.826Z,98413.41
2023-01-26T18:29:44.075Z,98419.44
2023-01-26T18:31:48.031Z,98408.31
2023-01-26T18:33:51.229Z,98416.13
2023-01-26T18:35:54.282Z,98417.81
2023-01-26T18:37:57.342Z,98412.00
2023-01-26T18:40:00.427Z,98415.59
2023-01-26T18:42:05.040Z,98404.44
2023-01-26T18:44:08.405Z,98415.72
2023-01-26T18:46:12.202Z,98415.72
2023-01-26T18:48:15.261Z,98413.91
2023-01-26T18:50:18.784Z,98410.66
2023-01-26T18:52:21.915Z,98414.84
2023-01-26T18:54:25.696Z,98410.66
2023-01-26T18:56:28.900Z,98411.63
2023-01-26T18:58:33.278Z,98415.19
2023-01-26T19:00:36.421Z,98414.41
2023-01-26T19:02:39.570Z,98414.50
2023-01-26T19:04:42.863Z,98414.50
2023-01-26T19:06:46.682Z,98405.91
2023-01-26T19:08:58.588Z,98417.03
2023-01-26T19:11:05.461Z,98417.75
2023-01-26T19:13:09.387Z,98417.72
2023-01-26T19:15:14.140Z,98418.63
2023-01-26T19:17:18.186Z,98418.72
2023-01-26T19:19:21.286Z,98421.34
2023-01-26T19:21:25.183Z,98415.44
2023-01-26T19:23:28.687Z,98409.47
2023-01-26T19:25:31.958Z,98416.41
2023-01-26T19:27:34.943Z,98405.38
2023-01-26T19:29:37.984Z,98407.91
2023-01-26T19:31:42.780Z,98413.06
2023-01-26T19:33:50.891Z,98409.72
2023-01-26T19:35:53.881Z,98411.59
2023-01-26T19:37:57.212Z,98416.78
2023-01-26T19:40:00.329Z,98414.22
2023-01-26T19:42:03.385Z,98413.53
2023-01-26T19:44:06.771Z,98412.88
2023-01-26T19:46:11.738Z,98404.56
2023-01-26T19:48:16.483Z,98409.66
2023-01-26T19:50:19.918Z,98402.81
2023-01-26T19:52:22.899Z,98410.44
2023-01-26T19:54:26.034Z,98413.88
2023-01-26T19:56:31.447Z,98406.97
2023-01-26T19:58:34.547Z,98398.66
2023-01-26T20:00:37.545Z,98403.09
2023-01-26T20:02:40.686Z,98405.56
2023-01-26T20:04:45.573Z,98403.09
2023-01-26T20:06:49.919Z,98408.22
2023-01-26T20:08:54.135Z,98408.31
2023-01-26T20:11:03.755Z,98416.88
2023-01-26T20:13:07.320Z,98418.56
2023-01-26T20:15:11.773Z,98415.22
2023-01-26T20:17:14.940Z,98411.78
2023-01-26T20:19:18.163Z,98406.63
2023-01-26T20:21:23.351Z,98411.88
2023-01-26T20:23:27.331Z,98411.97
2023-01-26T20:25:30.555Z,98416.22
2023-01-26T20:27:34.109Z,98415.31
2023-01-26T20:29:37.125Z,98418.72
2023-01-26T20:31:40.179Z,98417.84
2023-01-26T20:33:44.230Z,98422.94
2023-01-26T20:35:47.305Z,98421.31
2023-01-26T20:37:51.715Z,98413.66
2023-01-26T20:39:54.752Z,98413.59
2023-01-26T20:41:57.722Z,98414.47
2023-01-26T20:44:02.656Z,98416.19
2023-01-26T20:46:07.477Z,98415.31
2023-01-26T20:48:10.548Z,98412.69
2023-01-26T20:50:14.193Z,98407.56
2023-01-26T20:52:17.370Z,98419.50
2023-01-26T20:54:22.786Z,98415.13
2023-01-26T20:56:26.770Z,98419.44
2023-01-26T20:58:29.845Z,98416.88
2023-01-26T21:00:33.016Z,98414.31
2023-01-26T21:02:36.072Z,98424.59
2023-01-26T21:04:39.136Z,98426.28
2023-01-26T21:06:42.177Z,98418.56
2023-01-26T21:08:45.251Z,98416.81
2023-01-26T21:10:50.568Z,98421.88
2023-01-26T21:12:53.529Z,98416.78
2023-01-26T21:14:56.511Z,98421.97
2023-01-26T21:16:59.754Z,98418.50
2023-01-26T21:19:02.869Z,98417.66
2023-01-26T21:21:07.687Z,98415.09
2023-01-26T21:23:10.811Z,98415.88
2023-01-26T21:25:14.114Z,98412.50
2023-01-26T21:27:19.149Z,98405.56
2023-01-26T21:29:22.424Z,98407.28
2023-01-26T21:31:26.712Z,98408.16
2023-01-26T21:33:29.907Z,98411.53
2023-01-26T21:35:32.898Z,98406.38
2023-01-26T21:37:35.924Z,98404.59
2023-01-26T21:39:38.913Z,98405.44
2023-01-26T21:41:57.193Z,98401.19
2023-01-26T21:44:02.985Z,98398.56
2023-01-26T21:46:06.405Z,98394.22
2023-01-26T21:48:26.855Z,98395.97
2023-01-26T21:50:50.031Z,98397.66
2023-01-26T21:52:57.815Z,98400.16
2023-01-26T21:55:00.869Z,98390.81
2023-01-26T21:57:25.443Z,98395.97
2023-01-26T21:59:29.284Z,98393.44
2023-01-26T22:01:34.010Z,98388.34
2023-01-26T22:03:37.710Z,98395.19
2023-01-26T22:05:40.710Z,98391.84
2023-01-26T22:07:43.812Z,98390.91
2023-01-26T22:09:46.883Z,98401.97
2023-01-26T22:11:50.637Z,98403.78
2023-01-26T22:13:53.977Z,98404.66
2023-01-26T22:16:04.187Z,98403.78
2023-01-26T22:18:07.447Z,98393.53
2023-01-26T22:20:12.186Z,98398.66
2023-01-26T22:22:15.738Z,98401.97
2023-01-26T22:24:18.981Z,98401.97
2023-01-26T22:26:23.536Z,98398.53
2023-01-26T22:28:26.531Z,98401.97
2023-01-26T22:30:29.612Z,98406.19
2023-01-26T22:32:34.014Z,98408.00
2023-01-26T22:34:37.079Z,98401.97
2023-01-26T22:36:40.490Z,98398.47
2023-01-26T22:38:43.967Z,98403.56
2023-01-26T22:40:47.008Z,98400.25
2023-01-26T22:42:50.083Z,98395.03
2023-01-26T22:44:53.046Z,98395.81
2023-01-26T22:46:56.012Z,98388.09
2023-01-26T22:49:00.739Z,98380.41
2023-01-26T22:51:07.951Z,98388.88
2023-01-26T22:53:11.565Z,98391.50
2023-01-26T22:55:14.543Z,98386.31
2023-01-26T22:57:17.570Z,98383.00
2023-01-26T22:59:20.633Z,98379.56
2023-01-26T23:01:24.104Z,98380.38
2023-01-26T23:03:27.130Z,98375.72
2023-01-26T23:05:34.448Z,98379.38
2023-01-26T23:07:37.451Z,98373.44
2023-01-26T23:09:40.470Z,98369.13
2023-01-26T23:11:43.483Z,98370.72
2023-01-26T23:13:47.505Z,98362.06
2023-01-26T23:15:50.524Z,98362.06
2023-01-26T23:17:53.871Z,98368.97
2023-01-26T23:19:56.935Z,98361.44
2023-01-26T23:22:01.364Z,98363.19
2023-01-26T23:24:04.411Z,98358.34
2023-01-26T23:26:07.570Z,98359.16
2023-01-26T23:28:10.565Z,98354.13
2023-01-26T23:30:14.692Z,98361.78
2023-01-26T23:32:17.762Z,98354.94
2023-01-26T23:34:21.238Z,98353.94
2023-01-26T23:36:24.200Z,98363.34
2023-01-26T23:38:29.567Z,98353.94
2023-01-26T23:40:32.485Z,98356.41
2023-01-26T23:42:45.227Z,98356.34
2023-01-26T23:44:58.463Z,98351.22
2023-01-26T23:47:01.610Z,98343.69
2023-01-26T23:49:04.617Z,98343.06
2023-01-26T23:51:10.061Z,98339.78
2023-01-26T23:53:13.255Z,98343.28
2023-01-26T23:55:18.049Z,98344.16
2023-01-26T23:57:21.017Z,98349.41
2023-01-26T23:59:24.193Z,98339.84
